sensor_id;sensor_type;location;lat;lon;timestamp;P1;durP1;ratioP1;P2;durP2;ratioP2
4825;SDS011;2427;50.934;6.776;2023-08-06T00:00:16;4.13;;;2.90;;
4825;SDS011;2427;50.934;6.776;2023-08-06T00:02:42;3.93;;;2.90;;
4825;SDS011;2427;50.934;6.776;2023-08-06T00:05:07;3.00;;;2.70;;
4825;SDS011;2427;50.934;6.776;2023-08-06T00:07:33;4.70;;;2.63;;
4825;SDS011;2427;50.934;6.776;2023-08-06T00:09:58;4.10;;;3.10;;
4825;SDS011;2427;50.934;6.776;2023-08-06T00:12:24;4.20;;;2.87;;
4825;SDS011;2427;50.934;6.776;2023-08-06T00:14:50;4.37;;;3.03;;
4825;SDS011;2427;50.934;6.776;2023-08-06T00:17:17;3.13;;;2.73;;
4825;SDS011;2427;50.934;6.776;2023-08-06T00:19:42;4.53;;;3.20;;
4825;SDS011;2427;50.934;6.776;2023-08-06T00:22:08;4.40;;;3.13;;
4825;SDS011;2427;50.934;6.776;2023-08-06T00:24:34;6.27;;;3.63;;
4825;SDS011;2427;50.934;6.776;2023-08-06T00:27:00;8.80;;;3.43;;
4825;SDS011;2427;50.934;6.776;2023-08-06T00:29:26;6.93;;;3.97;;
4825;SDS011;2427;50.934;6.776;2023-08-06T00:31:51;2.83;;;2.60;;
4825;SDS011;2427;50.934;6.776;2023-08-06T00:34:17;2.93;;;2.63;;
4825;SDS011;2427;50.934;6.776;2023-08-06T00:36:42;5.60;;;3.00;;
4825;SDS011;2427;50.934;6.776;2023-08-06T00:39:08;6.63;;;3.50;;
4825;SDS011;2427;50.934;6.776;2023-08-06T00:41:33;6.10;;;2.90;;
4825;SDS011;2427;50.934;6.776;2023-08-06T00:43:59;3.17;;;2.70;;
4825;SDS011;2427;50.934;6.776;2023-08-06T00:46:25;4.90;;;2.90;;
4825;SDS011;2427;50.934;6.776;2023-08-06T00:48:51;5.17;;;3.20;;
4825;SDS011;2427;50.934;6.776;2023-08-06T00:51:17;4.37;;;2.60;;
4825;SDS011;2427;50.934;6.776;2023-08-06T00:53:43;4.00;;;2.93;;
4825;SDS011;2427;50.934;6.776;2023-08-06T00:56:10;3.73;;;2.47;;
4825;SDS011;2427;50.934;6.776;2023-08-06T00:58:36;3.20;;;2.90;;
4825;SDS011;2427;50.934;6.776;2023-08-06T01:11:28;3.50;;;2.80;;
4825;SDS011;2427;50.934;6.776;2023-08-06T01:14:57;3.70;;;2.70;;
4825;SDS011;2427;50.934;6.776;2023-08-06T01:17:10;3.07;;;2.40;;
4825;SDS011;2427;50.934;6.776;2023-08-06T01:19:37;4.70;;;2.10;;
4825;SDS011;2427;50.934;6.776;2023-08-06T01:22:03;3.70;;;2.03;;
4825;SDS011;2427;50.934;6.776;2023-08-06T01:24:29;3.70;;;2.17;;
4825;SDS011;2427;50.934;6.776;2023-08-06T01:26:58;4.33;;;2.27;;
4825;SDS011;2427;50.934;6.776;2023-08-06T01:29:33;2.63;;;2.33;;
4825;SDS011;2427;50.934;6.776;2023-08-06T01:32:04;3.60;;;2.10;;
4825;SDS011;2427;50.934;6.776;2023-08-06T01:34:32;4.17;;;2.30;;
4825;SDS011;2427;50.934;6.776;2023-08-06T01:36:59;2.80;;;1.83;;
4825;SDS011;2427;50.934;6.776;2023-08-06T01:39:25;2.73;;;1.70;;
4825;SDS011;2427;50.934;6.776;2023-08-06T01:41:51;3.17;;;2.20;;
4825;SDS011;2427;50.934;6.776;2023-08-06T01:44:17;2.83;;;2.27;;
4825;SDS011;2427;50.934;6.776;2023-08-06T01:46:43;2.93;;;1.90;;
4825;SDS011;2427;50.934;6.776;2023-08-06T01:49:08;2.00;;;1.90;;
4825;SDS011;2427;50.934;6.776;2023-08-06T01:51:34;3.80;;;2.00;;
4825;SDS011;2427;50.934;6.776;2023-08-06T01:53:59;3.00;;;1.97;;
4825;SDS011;2427;50.934;6.776;2023-08-06T01:56:25;4.27;;;1.93;;
4825;SDS011;2427;50.934;6.776;2023-08-06T01:58:51;2.10;;;1.73;;
4825;SDS011;2427;50.934;6.776;2023-08-06T02:01:16;2.10;;;2.00;;
4825;SDS011;2427;50.934;6.776;2023-08-06T02:03:42;2.50;;;2.20;;
4825;SDS011;2427;50.934;6.776;2023-08-06T02:06:07;3.20;;;1.80;;
4825;SDS011;2427;50.934;6.776;2023-08-06T02:08:33;1.87;;;1.77;;
4825;SDS011;2427;50.934;6.776;2023-08-06T02:10:59;5.70;;;1.80;;
4825;SDS011;2427;50.934;6.776;2023-08-06T02:13:24;2.03;;;1.87;;
4825;SDS011;2427;50.934;6.776;2023-08-06T02:15:50;3.47;;;1.93;;
4825;SDS011;2427;50.934;6.776;2023-08-06T02:18:16;3.50;;;2.30;;
4825;SDS011;2427;50.934;6.776;2023-08-06T02:20:41;5.30;;;2.20;;
4825;SDS011;2427;50.934;6.776;2023-08-06T02:23:08;2.63;;;2.10;;
4825;SDS011;2427;50.934;6.776;2023-08-06T02:25:34;1.70;;;1.60;;
4825;SDS011;2427;50.934;6.776;2023-08-06T02:28:00;4.47;;;2.47;;
4825;SDS011;2427;50.934;6.776;2023-08-06T02:30:25;5.50;;;2.37;;
4825;SDS011;2427;50.934;6.776;2023-08-06T02:32:51;2.50;;;1.90;;
4825;SDS011;2427;50.934;6.776;2023-08-06T02:35:16;6.00;;;2.17;;
4825;SDS011;2427;50.934;6.776;2023-08-06T02:37:42;3.20;;;1.80;;
4825;SDS011;2427;50.934;6.776;2023-08-06T02:40:07;2.27;;;2.07;;
4825;SDS011;2427;50.934;6.776;2023-08-06T02:42:33;3.30;;;2.07;;
4825;SDS011;2427;50.934;6.776;2023-08-06T02:44:59;2.07;;;1.80;;
4825;SDS011;2427;50.934;6.776;2023-08-06T02:47:24;3.80;;;2.10;;
4825;SDS011;2427;50.934;6.776;2023-08-06T02:49:50;2.70;;;1.87;;
4825;SDS011;2427;50.934;6.776;2023-08-06T02:52:15;3.97;;;2.27;;
4825;SDS011;2427;50.934;6.776;2023-08-06T02:54:42;3.20;;;2.30;;
4825;SDS011;2427;50.934;6.776;2023-08-06T02:57:08;1.83;;;1.70;;
4825;SDS011;2427;50.934;6.776;2023-08-06T02:59:33;2.13;;;1.93;;
4825;SDS011;2427;50.934;6.776;2023-08-06T03:01:59;2.57;;;2.10;;
4825;SDS011;2427;50.934;6.776;2023-08-06T03:04:24;2.87;;;2.13;;
4825;SDS011;2427;50.934;6.776;2023-08-06T03:06:50;2.00;;;1.80;;
4825;SDS011;2427;50.934;6.776;2023-08-06T03:09:16;2.00;;;1.77;;
4825;SDS011;2427;50.934;6.776;2023-08-06T03:11:42;3.10;;;1.80;;
4825;SDS011;2427;50.934;6.776;2023-08-06T03:14:08;2.83;;;1.60;;
4825;SDS011;2427;50.934;6.776;2023-08-06T03:16:34;3.43;;;1.90;;
4825;SDS011;2427;50.934;6.776;2023-08-06T03:18:59;4.60;;;1.90;;
4825;SDS011;2427;50.934;6.776;2023-08-06T03:21:25;2.27;;;2.07;;
4825;SDS011;2427;50.934;6.776;2023-08-06T03:23:50;3.40;;;1.97;;
4825;SDS011;2427;50.934;6.776;2023-08-06T03:26:16;2.30;;;1.60;;
4825;SDS011;2427;50.934;6.776;2023-08-06T03:28:41;2.50;;;1.80;;
4825;SDS011;2427;50.934;6.776;2023-08-06T03:31:07;2.57;;;1.70;;
4825;SDS011;2427;50.934;6.776;2023-08-06T03:33:33;2.50;;;1.63;;
4825;SDS011;2427;50.934;6.776;2023-08-06T03:35:58;3.00;;;1.67;;
4825;SDS011;2427;50.934;6.776;2023-08-06T03:38:24;9.67;;;2.10;;
4825;SDS011;2427;50.934;6.776;2023-08-06T03:40:49;6.57;;;1.70;;
4825;SDS011;2427;50.934;6.776;2023-08-06T03:43:15;6.10;;;2.00;;
4825;SDS011;2427;50.934;6.776;2023-08-06T03:45:41;1.80;;;1.53;;
4825;SDS011;2427;50.934;6.776;2023-08-06T03:48:07;5.40;;;2.00;;
4825;SDS011;2427;50.934;6.776;2023-08-06T03:50:33;3.07;;;2.20;;
4825;SDS011;2427;50.934;6.776;2023-08-06T03:52:59;2.77;;;2.27;;
4825;SDS011;2427;50.934;6.776;2023-08-06T03:55:25;5.50;;;2.53;;
4825;SDS011;2427;50.934;6.776;2023-08-06T03:57:50;2.37;;;2.10;;
4825;SDS011;2427;50.934;6.776;2023-08-06T04:00:16;4.03;;;2.43;;
4825;SDS011;2427;50.934;6.776;2023-08-06T04:02:42;4.70;;;3.20;;
4825;SDS011;2427;50.934;6.776;2023-08-06T04:05:07;3.93;;;2.83;;
4825;SDS011;2427;50.934;6.776;2023-08-06T04:07:38;3.70;;;2.67;;
4825;SDS011;2427;50.934;6.776;2023-08-06T04:10:04;5.03;;;3.20;;
4825;SDS011;2427;50.934;6.776;2023-08-06T04:12:30;3.90;;;2.90;;
4825;SDS011;2427;50.934;6.776;2023-08-06T04:14:57;3.97;;;3.43;;
4825;SDS011;2427;50.934;6.776;2023-08-06T04:17:23;9.90;;;3.70;;
4825;SDS011;2427;50.934;6.776;2023-08-06T04:19:52;3.80;;;2.60;;
4825;SDS011;2427;50.934;6.776;2023-08-06T04:22:19;3.90;;;2.63;;
4825;SDS011;2427;50.934;6.776;2023-08-06T04:24:45;5.40;;;3.00;;
4825;SDS011;2427;50.934;6.776;2023-08-06T04:27:11;3.30;;;2.30;;
4825;SDS011;2427;50.934;6.776;2023-08-06T04:29:37;6.47;;;2.53;;
4825;SDS011;2427;50.934;6.776;2023-08-06T04:32:05;5.77;;;3.03;;
4825;SDS011;2427;50.934;6.776;2023-08-06T04:34:32;5.40;;;3.17;;
4825;SDS011;2427;50.934;6.776;2023-08-06T04:36:58;3.20;;;2.80;;
4825;SDS011;2427;50.934;6.776;2023-08-06T04:39:24;2.80;;;2.53;;
4825;SDS011;2427;50.934;6.776;2023-08-06T04:41:50;4.37;;;2.97;;
4825;SDS011;2427;50.934;6.776;2023-08-06T04:44:15;4.30;;;3.20;;
4825;SDS011;2427;50.934;6.776;2023-08-06T04:46:41;5.80;;;3.77;;
4825;SDS011;2427;50.934;6.776;2023-08-06T04:49:06;4.57;;;3.93;;
4825;SDS011;2427;50.934;6.776;2023-08-06T04:51:32;3.27;;;2.60;;
4825;SDS011;2427;50.934;6.776;2023-08-06T04:53:58;3.47;;;3.10;;
4825;SDS011;2427;50.934;6.776;2023-08-06T04:56:23;7.03;;;3.67;;
4825;SDS011;2427;50.934;6.776;2023-08-06T04:58:49;5.67;;;4.60;;
4825;SDS011;2427;50.934;6.776;2023-08-06T05:01:15;7.10;;;4.50;;
4825;SDS011;2427;50.934;6.776;2023-08-06T05:03:41;5.00;;;4.53;;
4825;SDS011;2427;50.934;6.776;2023-08-06T05:06:06;6.90;;;4.60;;
4825;SDS011;2427;50.934;6.776;2023-08-06T05:08:32;6.33;;;4.53;;
4825;SDS011;2427;50.934;6.776;2023-08-06T05:10:58;5.67;;;4.93;;
4825;SDS011;2427;50.934;6.776;2023-08-06T05:13:23;5.13;;;4.20;;
4825;SDS011;2427;50.934;6.776;2023-08-06T05:15:50;5.70;;;4.40;;
4825;SDS011;2427;50.934;6.776;2023-08-06T05:18:16;4.47;;;3.80;;
4825;SDS011;2427;50.934;6.776;2023-08-06T05:20:41;4.87;;;4.00;;
4825;SDS011;2427;50.934;6.776;2023-08-06T05:23:08;4.77;;;4.03;;
4825;SDS011;2427;50.934;6.776;2023-08-06T05:25:34;4.20;;;3.80;;
4825;SDS011;2427;50.934;6.776;2023-08-06T05:28:00;7.07;;;3.97;;
4825;SDS011;2427;50.934;6.776;2023-08-06T05:30:27;5.93;;;3.87;;
4825;SDS011;2427;50.934;6.776;2023-08-06T05:32:52;6.53;;;4.30;;
4825;SDS011;2427;50.934;6.776;2023-08-06T05:35:18;5.20;;;3.80;;
4825;SDS011;2427;50.934;6.776;2023-08-06T05:37:44;6.47;;;4.03;;
4825;SDS011;2427;50.934;6.776;2023-08-06T05:40:09;5.37;;;4.00;;
4825;SDS011;2427;50.934;6.776;2023-08-06T05:42:35;3.70;;;3.17;;
4825;SDS011;2427;50.934;6.776;2023-08-06T05:45:00;3.67;;;3.37;;
4825;SDS011;2427;50.934;6.776;2023-08-06T05:47:26;5.30;;;3.03;;
4825;SDS011;2427;50.934;6.776;2023-08-06T05:49:52;3.77;;;3.07;;
4825;SDS011;2427;50.934;6.776;2023-08-06T05:52:17;5.63;;;3.77;;
4825;SDS011;2427;50.934;6.776;2023-08-06T05:54:43;6.60;;;3.63;;
4825;SDS011;2427;50.934;6.776;2023-08-06T05:57:08;4.93;;;3.37;;
4825;SDS011;2427;50.934;6.776;2023-08-06T05:59:34;4.00;;;3.10;;
4825;SDS011;2427;50.934;6.776;2023-08-06T06:01:59;3.77;;;3.33;;
4825;SDS011;2427;50.934;6.776;2023-08-06T06:04:25;5.90;;;3.70;;
4825;SDS011;2427;50.934;6.776;2023-08-06T06:06:50;4.30;;;3.90;;
4825;SDS011;2427;50.934;6.776;2023-08-06T06:09:16;5.57;;;3.50;;
4825;SDS011;2427;50.934;6.776;2023-08-06T06:11:41;3.37;;;2.73;;
4825;SDS011;2427;50.934;6.776;2023-08-06T06:14:07;3.13;;;2.33;;
4825;SDS011;2427;50.934;6.776;2023-08-06T06:16:33;2.90;;;2.10;;
4825;SDS011;2427;50.934;6.776;2023-08-06T06:18:59;3.87;;;1.90;;
4825;SDS011;2427;50.934;6.776;2023-08-06T06:21:24;3.90;;;2.10;;
4825;SDS011;2427;50.934;6.776;2023-08-06T06:23:50;2.93;;;1.80;;
4825;SDS011;2427;50.934;6.776;2023-08-06T06:26:16;2.33;;;1.53;;
4825;SDS011;2427;50.934;6.776;2023-08-06T06:28:43;1.87;;;1.53;;
4825;SDS011;2427;50.934;6.776;2023-08-06T06:31:08;1.63;;;1.20;;
4825;SDS011;2427;50.934;6.776;2023-08-06T06:33:34;2.23;;;1.40;;
4825;SDS011;2427;50.934;6.776;2023-08-06T06:36:00;1.60;;;1.30;;
4825;SDS011;2427;50.934;6.776;2023-08-06T06:38:28;1.50;;;1.30;;
4825;SDS011;2427;50.934;6.776;2023-08-06T06:40:54;1.73;;;1.10;;
4825;SDS011;2427;50.934;6.776;2023-08-06T06:43:20;1.67;;;1.20;;
4825;SDS011;2427;50.934;6.776;2023-08-06T06:45:46;2.07;;;1.33;;
4825;SDS011;2427;50.934;6.776;2023-08-06T06:48:11;4.53;;;1.30;;
4825;SDS011;2427;50.934;6.776;2023-08-06T06:50:37;1.93;;;1.53;;
4825;SDS011;2427;50.934;6.776;2023-08-06T06:53:04;1.30;;;1.20;;
4825;SDS011;2427;50.934;6.776;2023-08-06T06:55:29;1.73;;;1.40;;
4825;SDS011;2427;50.934;6.776;2023-08-06T06:57:55;3.80;;;1.80;;
4825;SDS011;2427;50.934;6.776;2023-08-06T07:00:21;2.10;;;1.90;;
4825;SDS011;2427;50.934;6.776;2023-08-06T07:02:46;2.10;;;1.90;;
4825;SDS011;2427;50.934;6.776;2023-08-06T07:05:12;1.43;;;1.33;;
4825;SDS011;2427;50.934;6.776;2023-08-06T07:07:37;1.77;;;1.30;;
4825;SDS011;2427;50.934;6.776;2023-08-06T07:10:04;1.83;;;1.63;;
4825;SDS011;2427;50.934;6.776;2023-08-06T07:12:30;3.07;;;1.57;;
4825;SDS011;2427;50.934;6.776;2023-08-06T07:14:56;1.60;;;1.50;;
4825;SDS011;2427;50.934;6.776;2023-08-06T07:17:21;2.10;;;1.60;;
4825;SDS011;2427;50.934;6.776;2023-08-06T07:19:47;3.20;;;1.90;;
4825;SDS011;2427;50.934;6.776;2023-08-06T07:22:13;3.07;;;2.37;;
4825;SDS011;2427;50.934;6.776;2023-08-06T07:24:38;1.90;;;1.53;;
4825;SDS011;2427;50.934;6.776;2023-08-06T07:27:04;3.07;;;1.77;;
4825;SDS011;2427;50.934;6.776;2023-08-06T07:29:30;2.43;;;1.50;;
4825;SDS011;2427;50.934;6.776;2023-08-06T07:31:56;2.97;;;1.80;;
4825;SDS011;2427;50.934;6.776;2023-08-06T07:34:21;1.57;;;1.47;;
4825;SDS011;2427;50.934;6.776;2023-08-06T07:36:47;2.73;;;1.70;;
4825;SDS011;2427;50.934;6.776;2023-08-06T07:39:13;1.90;;;1.70;;
4825;SDS011;2427;50.934;6.776;2023-08-06T07:41:38;2.53;;;1.90;;
4825;SDS011;2427;50.934;6.776;2023-08-06T07:44:04;2.30;;;1.77;;
4825;SDS011;2427;50.934;6.776;2023-08-06T07:46:29;3.13;;;1.60;;
4825;SDS011;2427;50.934;6.776;2023-08-06T07:48:55;3.73;;;1.77;;
4825;SDS011;2427;50.934;6.776;2023-08-06T07:51:20;2.83;;;1.70;;
4825;SDS011;2427;50.934;6.776;2023-08-06T07:53:46;2.33;;;1.60;;
4825;SDS011;2427;50.934;6.776;2023-08-06T07:56:12;1.80;;;1.70;;
4825;SDS011;2427;50.934;6.776;2023-08-06T07:58:37;3.50;;;1.57;;
4825;SDS011;2427;50.934;6.776;2023-08-06T08:01:03;3.70;;;1.60;;
4825;SDS011;2427;50.934;6.776;2023-08-06T08:03:28;2.17;;;1.70;;
4825;SDS011;2427;50.934;6.776;2023-08-06T08:05:55;2.10;;;1.70;;
4825;SDS011;2427;50.934;6.776;2023-08-06T08:08:24;3.30;;;2.13;;
4825;SDS011;2427;50.934;6.776;2023-08-06T08:10:49;1.57;;;1.40;;
4825;SDS011;2427;50.934;6.776;2023-08-06T08:13:15;2.87;;;1.70;;
4825;SDS011;2427;50.934;6.776;2023-08-06T08:15:41;1.97;;;1.77;;
4825;SDS011;2427;50.934;6.776;2023-08-06T08:18:07;1.90;;;1.73;;
4825;SDS011;2427;50.934;6.776;2023-08-06T08:20:33;2.23;;;1.50;;
4825;SDS011;2427;50.934;6.776;2023-08-06T08:23:00;4.37;;;2.00;;
4825;SDS011;2427;50.934;6.776;2023-08-06T08:25:26;2.47;;;2.10;;
4825;SDS011;2427;50.934;6.776;2023-08-06T08:27:53;1.90;;;1.70;;
4825;SDS011;2427;50.934;6.776;2023-08-06T08:30:19;1.90;;;1.80;;
4825;SDS011;2427;50.934;6.776;2023-08-06T08:32:44;2.03;;;1.77;;
4825;SDS011;2427;50.934;6.776;2023-08-06T08:35:10;2.30;;;1.93;;
4825;SDS011;2427;50.934;6.776;2023-08-06T08:37:38;1.90;;;1.80;;
4825;SDS011;2427;50.934;6.776;2023-08-06T08:40:04;2.30;;;1.30;;
4825;SDS011;2427;50.934;6.776;2023-08-06T08:42:31;1.43;;;0.90;;
4825;SDS011;2427;50.934;6.776;2023-08-06T08:44:57;1.07;;;0.97;;
4825;SDS011;2427;50.934;6.776;2023-08-06T08:47:22;1.10;;;1.00;;
4825;SDS011;2427;50.934;6.776;2023-08-06T08:49:51;1.40;;;1.00;;
4825;SDS011;2427;50.934;6.776;2023-08-06T08:52:21;1.20;;;1.10;;
4825;SDS011;2427;50.934;6.776;2023-08-06T08:54:47;1.33;;;1.10;;
4825;SDS011;2427;50.934;6.776;2023-08-06T08:57:18;1.17;;;1.07;;
4825;SDS011;2427;50.934;6.776;2023-08-06T08:59:46;1.40;;;1.30;;
4825;SDS011;2427;50.934;6.776;2023-08-06T09:02:12;2.27;;;2.07;;
4825;SDS011;2427;50.934;6.776;2023-08-06T09:04:40;2.47;;;1.50;;
4825;SDS011;2427;50.934;6.776;2023-08-06T09:07:06;6.07;;;5.43;;
4825;SDS011;2427;50.934;6.776;2023-08-06T09:09:35;3.17;;;2.50;;
4825;SDS011;2427;50.934;6.776;2023-08-06T09:12:06;2.30;;;2.10;;
4825;SDS011;2427;50.934;6.776;2023-08-06T09:14:37;3.87;;;2.20;;
4825;SDS011;2427;50.934;6.776;2023-08-06T09:17:03;2.60;;;2.30;;
4825;SDS011;2427;50.934;6.776;2023-08-06T09:19:32;2.50;;;2.30;;
4825;SDS011;2427;50.934;6.776;2023-08-06T09:21:58;3.20;;;2.37;;
4825;SDS011;2427;50.934;6.776;2023-08-06T09:24:24;4.17;;;3.30;;
4825;SDS011;2427;50.934;6.776;2023-08-06T09:26:51;2.93;;;2.73;;
4825;SDS011;2427;50.934;6.776;2023-08-06T09:29:23;4.00;;;3.03;;
4825;SDS011;2427;50.934;6.776;2023-08-06T09:31:49;3.60;;;3.30;;
4825;SDS011;2427;50.934;6.776;2023-08-06T09:37:11;4.83;;;3.07;;
4825;SDS011;2427;50.934;6.776;2023-08-06T09:39:39;3.30;;;3.10;;
4825;SDS011;2427;50.934;6.776;2023-08-06T09:42:08;4.43;;;3.33;;
4825;SDS011;2427;50.934;6.776;2023-08-06T09:44:34;3.00;;;2.70;;
4825;SDS011;2427;50.934;6.776;2023-08-06T09:47:00;2.10;;;1.90;;
4825;SDS011;2427;50.934;6.776;2023-08-06T09:52:01;1.50;;;1.13;;
4825;SDS011;2427;50.934;6.776;2023-08-06T09:54:27;3.40;;;1.33;;
4825;SDS011;2427;50.934;6.776;2023-08-06T09:56:55;1.00;;;0.90;;
4825;SDS011;2427;50.934;6.776;2023-08-06T09:59:24;1.10;;;1.00;;
4825;SDS011;2427;50.934;6.776;2023-08-06T10:01:51;0.90;;;0.70;;
4825;SDS011;2427;50.934;6.776;2023-08-06T10:04:19;1.50;;;1.03;;
4825;SDS011;2427;50.934;6.776;2023-08-06T10:06:47;1.20;;;0.90;;
4825;SDS011;2427;50.934;6.776;2023-08-06T10:09:13;1.13;;;1.03;;
4825;SDS011;2427;50.934;6.776;2023-08-06T10:11:43;0.90;;;0.80;;
4825;SDS011;2427;50.934;6.776;2023-08-06T10:14:25;1.10;;;1.00;;
4825;SDS011;2427;50.934;6.776;2023-08-06T10:16:54;1.00;;;0.90;;
4825;SDS011;2427;50.934;6.776;2023-08-06T10:19:22;1.13;;;1.03;;
4825;SDS011;2427;50.934;6.776;2023-08-06T10:24:57;2.03;;;1.40;;
4825;SDS011;2427;50.934;6.776;2023-08-06T10:27:30;3.03;;;1.87;;
4825;SDS011;2427;50.934;6.776;2023-08-06T10:30:26;3.83;;;2.20;;
4825;SDS011;2427;50.934;6.776;2023-08-06T10:32:57;2.23;;;2.03;;
4825;SDS011;2427;50.934;6.776;2023-08-06T10:37:52;2.70;;;2.13;;
4825;SDS011;2427;50.934;6.776;2023-08-06T10:40:20;12.53;;;2.70;;
4825;SDS011;2427;50.934;6.776;2023-08-06T10:42:46;2.47;;;2.00;;
4825;SDS011;2427;50.934;6.776;2023-08-06T10:47:42;1.97;;;1.80;;
4825;SDS011;2427;50.934;6.776;2023-08-06T10:50:10;2.70;;;2.50;;
4825;SDS011;2427;50.934;6.776;2023-08-06T10:52:45;3.00;;;2.80;;
4825;SDS011;2427;50.934;6.776;2023-08-06T10:55:12;3.23;;;2.23;;
4825;SDS011;2427;50.934;6.776;2023-08-06T10:57:58;4.60;;;2.13;;
4825;SDS011;2427;50.934;6.776;2023-08-06T11:00:24;4.00;;;2.33;;
4825;SDS011;2427;50.934;6.776;2023-08-06T11:02:51;2.67;;;2.33;;
4825;SDS011;2427;50.934;6.776;2023-08-06T11:05:18;5.70;;;2.50;;
4825;SDS011;2427;50.934;6.776;2023-08-06T11:07:43;3.33;;;2.27;;
4825;SDS011;2427;50.934;6.776;2023-08-06T11:10:10;3.87;;;2.30;;
4825;SDS011;2427;50.934;6.776;2023-08-06T11:12:37;3.30;;;2.30;;
4825;SDS011;2427;50.934;6.776;2023-08-06T11:15:03;4.93;;;2.00;;
4825;SDS011;2427;50.934;6.776;2023-08-06T11:17:33;5.73;;;2.13;;
4825;SDS011;2427;50.934;6.776;2023-08-06T11:19:59;5.23;;;1.90;;
4825;SDS011;2427;50.934;6.776;2023-08-06T11:22:29;3.93;;;2.10;;
4825;SDS011;2427;50.934;6.776;2023-08-06T11:24:54;4.23;;;2.00;;
4825;SDS011;2427;50.934;6.776;2023-08-06T11:27:20;4.07;;;1.93;;
4825;SDS011;2427;50.934;6.776;2023-08-06T11:29:45;4.70;;;1.77;;
4825;SDS011;2427;50.934;6.776;2023-08-06T11:32:11;2.67;;;1.80;;
4825;SDS011;2427;50.934;6.776;2023-08-06T11:34:37;5.57;;;2.37;;
4825;SDS011;2427;50.934;6.776;2023-08-06T11:37:04;4.10;;;1.70;;
4825;SDS011;2427;50.934;6.776;2023-08-06T11:39:33;3.00;;;1.70;;
4825;SDS011;2427;50.934;6.776;2023-08-06T11:41:59;6.27;;;1.60;;
4825;SDS011;2427;50.934;6.776;2023-08-06T11:44:29;7.03;;;1.60;;
4825;SDS011;2427;50.934;6.776;2023-08-06T11:46:59;3.23;;;1.40;;
4825;SDS011;2427;50.934;6.776;2023-08-06T11:49:39;4.43;;;1.70;;
4825;SDS011;2427;50.934;6.776;2023-08-06T11:52:10;6.60;;;1.47;;
4825;SDS011;2427;50.934;6.776;2023-08-06T11:54:38;3.30;;;1.27;;
4825;SDS011;2427;50.934;6.776;2023-08-06T11:57:06;6.40;;;1.50;;
4825;SDS011;2427;50.934;6.776;2023-08-06T11:59:33;4.33;;;1.80;;
4825;SDS011;2427;50.934;6.776;2023-08-06T12:02:05;3.80;;;1.20;;
4825;SDS011;2427;50.934;6.776;2023-08-06T12:07:33;2.00;;;1.30;;
4825;SDS011;2427;50.934;6.776;2023-08-06T12:10:02;6.13;;;1.97;;
4825;SDS011;2427;50.934;6.776;2023-08-06T12:15:18;1.30;;;1.00;;
4825;SDS011;2427;50.934;6.776;2023-08-06T12:17:44;6.93;;;1.70;;
4825;SDS011;2427;50.934;6.776;2023-08-06T12:20:09;5.90;;;1.50;;
4825;SDS011;2427;50.934;6.776;2023-08-06T12:22:38;7.07;;;1.77;;
4825;SDS011;2427;50.934;6.776;2023-08-06T12:25:11;9.17;;;4.60;;
4825;SDS011;2427;50.934;6.776;2023-08-06T12:27:41;2.10;;;1.20;;
4825;SDS011;2427;50.934;6.776;2023-08-06T12:30:14;2.90;;;1.10;;
4825;SDS011;2427;50.934;6.776;2023-08-06T12:33:03;4.63;;;1.27;;
4825;SDS011;2427;50.934;6.776;2023-08-06T12:35:31;3.50;;;1.60;;
4825;SDS011;2427;50.934;6.776;2023-08-06T12:38:03;2.90;;;1.30;;
4825;SDS011;2427;50.934;6.776;2023-08-06T12:40:28;5.73;;;1.63;;
4825;SDS011;2427;50.934;6.776;2023-08-06T12:45:39;3.13;;;1.67;;
4825;SDS011;2427;50.934;6.776;2023-08-06T12:48:04;3.90;;;1.53;;
4825;SDS011;2427;50.934;6.776;2023-08-06T12:50:30;5.10;;;1.50;;
4825;SDS011;2427;50.934;6.776;2023-08-06T12:53:00;3.30;;;1.90;;
4825;SDS011;2427;50.934;6.776;2023-08-06T12:58:24;4.57;;;1.70;;
4825;SDS011;2427;50.934;6.776;2023-08-06T13:00:50;6.93;;;2.00;;
4825;SDS011;2427;50.934;6.776;2023-08-06T13:03:15;2.33;;;2.00;;
4825;SDS011;2427;50.934;6.776;2023-08-06T13:05:42;4.70;;;2.30;;
4825;SDS011;2427;50.934;6.776;2023-08-06T13:08:08;3.67;;;2.20;;
4825;SDS011;2427;50.934;6.776;2023-08-06T13:10:33;4.30;;;3.13;;
4825;SDS011;2427;50.934;6.776;2023-08-06T13:12:59;4.10;;;2.33;;
4825;SDS011;2427;50.934;6.776;2023-08-06T13:15:25;3.03;;;2.50;;
4825;SDS011;2427;50.934;6.776;2023-08-06T13:17:50;8.93;;;2.77;;
4825;SDS011;2427;50.934;6.776;2023-08-06T13:20:16;7.77;;;2.83;;
4825;SDS011;2427;50.934;6.776;2023-08-06T13:22:44;4.23;;;2.60;;
4825;SDS011;2427;50.934;6.776;2023-08-06T13:25:11;3.70;;;2.87;;
4825;SDS011;2427;50.934;6.776;2023-08-06T13:27:39;10.50;;;3.30;;
4825;SDS011;2427;50.934;6.776;2023-08-06T13:30:05;3.20;;;2.93;;
4825;SDS011;2427;50.934;6.776;2023-08-06T13:32:32;6.27;;;3.00;;
4825;SDS011;2427;50.934;6.776;2023-08-06T13:34:58;6.93;;;3.00;;
4825;SDS011;2427;50.934;6.776;2023-08-06T13:37:24;5.50;;;3.23;;
4825;SDS011;2427;50.934;6.776;2023-08-06T13:39:50;5.97;;;3.80;;
4825;SDS011;2427;50.934;6.776;2023-08-06T13:42:16;6.77;;;3.77;;
4825;SDS011;2427;50.934;6.776;2023-08-06T13:44:41;5.43;;;3.50;;
4825;SDS011;2427;50.934;6.776;2023-08-06T13:47:07;5.43;;;2.80;;
4825;SDS011;2427;50.934;6.776;2023-08-06T13:49:33;7.17;;;3.00;;
4825;SDS011;2427;50.934;6.776;2023-08-06T13:51:58;4.80;;;3.27;;
4825;SDS011;2427;50.934;6.776;2023-08-06T13:54:24;5.13;;;2.53;;
4825;SDS011;2427;50.934;6.776;2023-08-06T13:56:49;3.87;;;2.50;;
4825;SDS011;2427;50.934;6.776;2023-08-06T13:59:16;3.40;;;2.07;;
4825;SDS011;2427;50.934;6.776;2023-08-06T14:01:42;2.23;;;1.53;;
4825;SDS011;2427;50.934;6.776;2023-08-06T14:04:07;4.00;;;1.70;;
4825;SDS011;2427;50.934;6.776;2023-08-06T14:06:33;2.70;;;1.53;;
4825;SDS011;2427;50.934;6.776;2023-08-06T14:08:58;3.17;;;1.13;;
4825;SDS011;2427;50.934;6.776;2023-08-06T14:11:24;3.03;;;1.37;;
4825;SDS011;2427;50.934;6.776;2023-08-06T14:13:50;1.00;;;0.90;;
4825;SDS011;2427;50.934;6.776;2023-08-06T14:16:15;3.57;;;1.20;;
4825;SDS011;2427;50.934;6.776;2023-08-06T14:18:41;4.37;;;1.10;;
4825;SDS011;2427;50.934;6.776;2023-08-06T14:21:07;2.57;;;1.00;;
4825;SDS011;2427;50.934;6.776;2023-08-06T14:23:33;2.30;;;1.00;;
4825;SDS011;2427;50.934;6.776;2023-08-06T14:25:59;2.07;;;0.83;;
4825;SDS011;2427;50.934;6.776;2023-08-06T14:28:24;2.30;;;1.00;;
4825;SDS011;2427;50.934;6.776;2023-08-06T14:30:50;3.47;;;1.30;;
4825;SDS011;2427;50.934;6.776;2023-08-06T14:33:15;5.67;;;1.00;;
4825;SDS011;2427;50.934;6.776;2023-08-06T14:35:41;1.57;;;1.00;;
4825;SDS011;2427;50.934;6.776;2023-08-06T14:38:07;1.73;;;0.97;;
4825;SDS011;2427;50.934;6.776;2023-08-06T14:40:32;2.53;;;1.20;;
4825;SDS011;2427;50.934;6.776;2023-08-06T14:43:02;5.80;;;0.97;;
4825;SDS011;2427;50.934;6.776;2023-08-06T14:45:30;1.37;;;0.83;;
4825;SDS011;2427;50.934;6.776;2023-08-06T14:47:55;1.80;;;0.87;;
4825;SDS011;2427;50.934;6.776;2023-08-06T14:50:21;2.80;;;1.00;;
4825;SDS011;2427;50.934;6.776;2023-08-06T14:52:47;1.00;;;0.83;;
4825;SDS011;2427;50.934;6.776;2023-08-06T14:55:17;2.77;;;0.87;;
4825;SDS011;2427;50.934;6.776;2023-08-06T14:57:49;2.40;;;1.10;;
4825;SDS011;2427;50.934;6.776;2023-08-06T15:00:14;1.33;;;0.97;;
4825;SDS011;2427;50.934;6.776;2023-08-06T15:02:40;3.53;;;1.00;;
4825;SDS011;2427;50.934;6.776;2023-08-06T15:05:05;2.30;;;0.80;;
4825;SDS011;2427;50.934;6.776;2023-08-06T15:07:31;4.90;;;1.03;;
4825;SDS011;2427;50.934;6.776;2023-08-06T15:10:00;2.90;;;0.90;;
4825;SDS011;2427;50.934;6.776;2023-08-06T15:12:26;2.20;;;0.70;;
4825;SDS011;2427;50.934;6.776;2023-08-06T15:14:52;3.43;;;1.10;;
4825;SDS011;2427;50.934;6.776;2023-08-06T15:17:17;1.00;;;0.70;;
4825;SDS011;2427;50.934;6.776;2023-08-06T15:19:43;1.17;;;1.00;;
4825;SDS011;2427;50.934;6.776;2023-08-06T15:22:09;1.30;;;0.70;;
4825;SDS011;2427;50.934;6.776;2023-08-06T15:24:37;1.60;;;0.67;;
4825;SDS011;2427;50.934;6.776;2023-08-06T15:27:06;1.90;;;0.97;;
4825;SDS011;2427;50.934;6.776;2023-08-06T15:29:32;1.50;;;1.10;;
4825;SDS011;2427;50.934;6.776;2023-08-06T15:31:57;1.77;;;0.93;;
4825;SDS011;2427;50.934;6.776;2023-08-06T15:34:23;2.80;;;1.00;;
4825;SDS011;2427;50.934;6.776;2023-08-06T15:36:48;1.80;;;0.80;;
4825;SDS011;2427;50.934;6.776;2023-08-06T15:39:14;5.50;;;0.90;;
4825;SDS011;2427;50.934;6.776;2023-08-06T15:41:40;1.90;;;1.03;;
4825;SDS011;2427;50.934;6.776;2023-08-06T15:44:05;1.93;;;0.90;;
4825;SDS011;2427;50.934;6.776;2023-08-06T15:46:31;1.90;;;1.00;;